sensor_id;sensor_type;location;lat;lon;timestamp;pressure;altitude;pressure_sealevel;temperature;humidity
77737;BME280;66903;59.926;30.404;2023-05-10T00:03:59;102299.75;;;27.87;25.87
77737;BME280;66903;59.926;30.404;2023-05-10T00:08:59;102294.31;;;27.85;26.45
77737;BME280;66903;59.926;30.404;2023-05-10T00:14:00;102295.44;;;27.84;26.29
77737;BME280;66903;59.926;30.404;2023-05-10T00:19:01;102296.31;;;27.85;26.26
77737;BME280;66903;59.926;30.404;2023-05-10T00:24:01;102294.31;;;27.85;26.17
77737;BME280;66903;59.926;30.404;2023-05-10T00:29:02;102293.44;;;27.85;26.16
77737;BME280;66903;59.926;30.404;2023-05-10T00:34:03;102288.84;;;27.84;26.05
77737;BME280;66903;59.926;30.404;2023-05-10T00:39:03;102288.28;;;27.82;26.31
77737;BME280;66903;59.926;30.404;2023-05-10T00:44:03;102286.00;;;27.79;26.32
77737;BME280;66903;59.926;30.404;2023-05-10T00:49:04;102286.84;;;27.79;26.33
77737;BME280;66903;59.926;30.404;2023-05-10T00:54:05;102288.31;;;27.77;26.18
77737;BME280;66903;59.926;30.404;2023-05-10T00:59:08;102288.88;;;27.74;26.70
77737;BME280;66903;59.926;30.404;2023-05-10T01:04:10;102297.50;;;27.74;26.18
77737;BME280;66903;59.926;30.404;2023-05-10T01:09:12;102282.59;;;27.72;26.29
77737;BME280;66903;59.926;30.404;2023-05-10T01:14:14;102289.47;;;27.71;26.31
77737;BME280;66903;59.926;30.404;2023-05-10T01:19:29;102292.91;;;27.73;26.06
77737;BME280;66903;59.926;30.404;2023-05-10T01:40:33;102280.00;;;27.65;25.82
77737;BME280;66903;59.926;30.404;2023-05-10T01:46:09;102282.59;;;27.67;25.93
77737;BME280;66903;59.926;30.404;2023-05-10T01:51:11;102280.91;;;27.61;26.21
77737;BME280;66903;59.926;30.404;2023-05-10T01:56:12;102271.44;;;27.60;26.11
77737;BME280;66903;59.926;30.404;2023-05-10T02:01:15;102281.78;;;27.61;26.19
77737;BME280;66903;59.926;30.404;2023-05-10T02:06:18;102278.59;;;27.63;25.86
77737;BME280;66903;59.926;30.404;2023-05-10T02:11:21;102282.31;;;27.63;25.86
77737;BME280;66903;59.926;30.404;2023-05-10T02:16:24;102287.22;;;27.63;26.00
77737;BME280;66903;59.926;30.404;2023-05-10T02:21:28;102290.94;;;27.63;25.94
77737;BME280;66903;59.926;30.404;2023-05-10T02:26:31;102288.94;;;27.64;26.13
77737;BME280;66903;59.926;30.404;2023-05-10T02:31:33;102291.22;;;27.62;26.10
77737;BME280;66903;59.926;30.404;2023-05-10T02:36:34;102286.34;;;27.62;26.58
77737;BME280;66903;59.926;30.404;2023-05-10T02:41:36;102283.78;;;27.61;26.22
77737;BME280;66903;59.926;30.404;2023-05-10T02:46:37;102284.34;;;27.63;26.34
77737;BME280;66903;59.926;30.404;2023-05-10T02:51:44;102281.47;;;27.63;26.24
77737;BME280;66903;59.926;30.404;2023-05-10T02:56:51;102284.91;;;27.65;26.28
77737;BME280;66903;59.926;30.404;2023-05-10T03:01:54;102286.66;;;27.61;26.46
77737;BME280;66903;59.926;30.404;2023-05-10T03:06:54;102300.41;;;27.64;26.00
77737;BME280;66903;59.926;30.404;2023-05-10T03:12:04;102298.69;;;27.68;25.95
77737;BME280;66903;59.926;30.404;2023-05-10T03:17:32;102300.97;;;27.71;25.72
77737;BME280;66903;59.926;30.404;2023-05-10T03:22:52;102292.63;;;27.69;26.10
77737;BME280;66903;59.926;30.404;2023-05-10T03:27:56;102286.31;;;27.67;26.27
77737;BME280;66903;59.926;30.404;2023-05-10T03:32:57;102287.19;;;27.68;26.05
77737;BME280;66903;59.926;30.404;2023-05-10T03:37:58;102294.63;;;27.69;25.94
77737;BME280;66903;59.926;30.404;2023-05-10T03:42:59;102280.59;;;27.67;26.48
77737;BME280;66903;59.926;30.404;2023-05-10T03:47:59;102294.91;;;27.72;26.08
77737;BME280;66903;59.926;30.404;2023-05-10T03:53:00;102281.44;;;27.73;26.21
77737;BME280;66903;59.926;30.404;2023-05-10T03:58:00;102290.63;;;27.75;26.04
77737;BME280;66903;59.926;30.404;2023-05-10T04:03:01;102292.03;;;27.72;26.27
77737;BME280;66903;59.926;30.404;2023-05-10T04:08:02;102288.03;;;27.73;26.05
77737;BME280;66903;59.926;30.404;2023-05-10T04:13:02;102296.34;;;27.75;25.73
77737;BME280;66903;59.926;30.404;2023-05-10T04:18:03;102286.31;;;27.67;25.82
77737;BME280;66903;59.926;30.404;2023-05-10T04:23:04;102291.22;;;27.62;25.58
77737;BME280;66903;59.926;30.404;2023-05-10T04:28:04;102295.84;;;27.58;25.83
77737;BME280;66903;59.926;30.404;2023-05-10T04:33:05;102287.25;;;27.58;26.27
77737;BME280;66903;59.926;30.404;2023-05-10T04:38:05;102290.09;;;27.58;26.11
77737;BME280;66903;59.926;30.404;2023-05-10T04:43:06;102288.66;;;27.60;26.17
77737;BME280;66903;59.926;30.404;2023-05-10T04:48:06;102298.69;;;27.63;26.37
77737;BME280;66903;59.926;30.404;2023-05-10T04:53:07;102294.66;;;27.64;26.13
77737;BME280;66903;59.926;30.404;2023-05-10T04:58:08;102293.78;;;27.63;26.09
77737;BME280;66903;59.926;30.404;2023-05-10T05:03:08;102296.66;;;27.63;26.14
77737;BME280;66903;59.926;30.404;2023-05-10T05:08:09;102293.78;;;27.63;25.94
77737;BME280;66903;59.926;30.404;2023-05-10T05:13:12;102304.16;;;27.64;25.54
77737;BME280;66903;59.926;30.404;2023-05-10T05:18:12;102302.97;;;27.65;25.17
77737;BME280;66903;59.926;30.404;2023-05-10T05:23:13;102294.06;;;27.67;25.00
77737;BME280;66903;59.926;30.404;2023-05-10T05:28:13;102290.34;;;27.71;25.25
77737;BME280;66903;59.926;30.404;2023-05-10T05:33:14;102298.59;;;27.88;25.07
77737;BME280;66903;59.926;30.404;2023-05-10T05:38:15;102295.31;;;28.14;24.88
77737;BME280;66903;59.926;30.404;2023-05-10T05:43:16;102287.59;;;28.59;24.08
77737;BME280;66903;59.926;30.404;2023-05-10T05:48:16;102296.38;;;29.11;23.97
77737;BME280;66903;59.926;30.404;2023-05-10T05:53:17;102294.97;;;29.61;23.51
77737;BME280;66903;59.926;30.404;2023-05-10T05:58:17;102291.13;;;29.94;23.52
77737;BME280;66903;59.926;30.404;2023-05-10T06:03:18;102296.00;;;30.17;22.88
77737;BME280;66903;59.926;30.404;2023-05-10T06:08:19;102298.00;;;30.40;22.72
77737;BME280;66903;59.926;30.404;2023-05-10T06:13:20;102296.06;;;30.54;22.91
77737;BME280;66903;59.926;30.404;2023-05-10T06:18:21;102297.13;;;30.77;22.38
77737;BME280;66903;59.926;30.404;2023-05-10T06:23:21;102295.19;;;30.91;22.27
77737;BME280;66903;59.926;30.404;2023-05-10T06:28:22;102293.41;;;31.08;22.19
77737;BME280;66903;59.926;30.404;2023-05-10T06:33:23;102296.31;;;31.08;21.81
77737;BME280;66903;59.926;30.404;2023-05-10T06:38:24;102312.00;;;31.34;21.83
77737;BME280;66903;59.926;30.404;2023-05-10T06:43:24;102297.91;;;31.60;21.64
77737;BME280;66903;59.926;30.404;2023-05-10T06:48:26;102306.59;;;31.60;21.64
77737;BME280;66903;59.926;30.404;2023-05-10T06:53:27;102299.31;;;31.76;21.72
77737;BME280;66903;59.926;30.404;2023-05-10T06:58:27;102309.22;;;32.65;20.87
77737;BME280;66903;59.926;30.404;2023-05-10T07:03:28;102317.31;;;33.65;20.67
77737;BME280;66903;59.926;30.404;2023-05-10T07:08:30;102310.31;;;34.53;20.10
77737;BME280;66903;59.926;30.404;2023-05-10T07:13:31;102317.41;;;35.67;19.79
77737;BME280;66903;59.926;30.404;2023-05-10T07:18:32;102322.56;;;36.65;19.04
77737;BME280;66903;59.926;30.404;2023-05-10T07:23:32;102322.91;;;37.05;18.83
77737;BME280;66903;59.926;30.404;2023-05-10T07:28:33;102331.78;;;37.29;18.70
77737;BME280;66903;59.926;30.404;2023-05-10T07:33:33;102330.41;;;37.59;18.25
77737;BME280;66903;59.926;30.404;2023-05-10T07:38:34;102329.03;;;37.78;18.75
77737;BME280;66903;59.926;30.404;2023-05-10T07:43:34;102327.53;;;37.71;18.46
77737;BME280;66903;59.926;30.404;2023-05-10T07:48:36;102319.38;;;38.22;18.06
77737;BME280;66903;59.926;30.404;2023-05-10T07:53:37;102328.78;;;38.79;18.25
77737;BME280;66903;59.926;30.404;2023-05-10T07:58:37;102320.50;;;39.21;17.52
77737;BME280;66903;59.926;30.404;2023-05-10T08:03:38;102333.66;;;39.54;17.81
77737;BME280;66903;59.926;30.404;2023-05-10T08:08:39;102330.84;;;39.73;17.14
77737;BME280;66903;59.926;30.404;2023-05-10T08:13:39;102329.16;;;39.72;17.05
77737;BME280;66903;59.926;30.404;2023-05-10T08:18:40;102329.78;;;39.66;16.67
77737;BME280;66903;59.926;30.404;2023-05-10T08:23:40;102328.09;;;39.81;17.18
77737;BME280;66903;59.926;30.404;2023-05-10T08:28:41;102337.56;;;39.74;17.41
77737;BME280;66903;59.926;30.404;2023-05-10T08:33:41;102333.34;;;40.03;17.06
77737;BME280;66903;59.926;30.404;2023-05-10T08:38:42;102333.34;;;40.34;16.41
77737;BME280;66903;59.926;30.404;2023-05-10T08:43:43;102342.41;;;40.44;16.88
77737;BME280;66903;59.926;30.404;2023-05-10T08:48:48;102335.66;;;40.59;16.24
77737;BME280;66903;59.926;30.404;2023-05-10T08:53:49;102333.09;;;40.58;16.74
77737;BME280;66903;59.926;30.404;2023-05-10T08:58:50;102336.41;;;40.56;16.17
77737;BME280;66903;59.926;30.404;2023-05-10T09:03:52;102338.06;;;40.89;16.22
77737;BME280;66903;59.926;30.404;2023-05-10T09:08:53;102330.00;;;40.86;16.02
77737;BME280;66903;59.926;30.404;2023-05-10T09:13:54;102334.91;;;41.35;16.25
77737;BME280;66903;59.926;30.404;2023-05-10T09:18:54;102333.06;;;41.65;15.93
77737;BME280;66903;59.926;30.404;2023-05-10T09:23:55;102331.75;;;41.86;15.78
77737;BME280;66903;59.926;30.404;2023-05-10T09:28:59;102333.38;;;41.83;15.90
77737;BME280;66903;59.926;30.404;2023-05-10T09:34:00;102328.97;;;41.32;16.00
77737;BME280;66903;59.926;30.404;2023-05-10T09:39:00;102314.41;;;40.47;16.30
77737;BME280;66903;59.926;30.404;2023-05-10T09:44:01;102318.81;;;39.47;16.74
77737;BME280;66903;59.926;30.404;2023-05-10T09:49:01;102300.09;;;38.57;17.47
77737;BME280;66903;59.926;30.404;2023-05-10T09:54:15;102317.00;;;38.03;17.91
77737;BME280;66903;59.926;30.404;2023-05-10T09:59:16;102302.63;;;37.29;17.97
77737;BME280;66903;59.926;30.404;2023-05-10T10:04:17;102308.72;;;36.83;18.26
77737;BME280;66903;59.926;30.404;2023-05-10T10:09:20;102299.06;;;36.41;18.78
77737;BME280;66903;59.926;30.404;2023-05-10T10:14:22;102305.75;;;36.13;18.88
77737;BME280;66903;59.926;30.404;2023-05-10T10:19:24;102301.44;;;35.81;19.23
77737;BME280;66903;59.926;30.404;2023-05-10T10:24:24;102292.81;;;35.55;19.28
77737;BME280;66903;59.926;30.404;2023-05-10T10:29:41;102302.09;;;35.40;19.27
77737;BME280;66903;59.926;30.404;2023-05-10T10:34:44;102294.63;;;35.05;19.59
77737;BME280;66903;59.926;30.404;2023-05-10T10:39:44;102281.09;;;34.84;19.74
77737;BME280;66903;59.926;30.404;2023-05-10T10:44:45;102284.19;;;34.70;19.86
77737;BME280;66903;59.926;30.404;2023-05-10T10:49:51;102282.47;;;34.78;20.13
77737;BME280;66903;59.926;30.404;2023-05-10T10:55:15;102291.88;;;34.92;19.77
77737;BME280;66903;59.926;30.404;2023-05-10T11:00:41;102288.78;;;35.14;19.49
77737;BME280;66903;59.926;30.404;2023-05-10T11:11:03;102276.34;;;34.71;19.63
77737;BME280;66903;59.926;30.404;2023-05-10T11:16:55;102275.22;;;34.24;19.87
77737;BME280;66903;59.926;30.404;2023-05-10T11:22:12;102273.06;;;33.90;19.96
77737;BME280;66903;59.926;30.404;2023-05-10T11:27:13;102265.41;;;33.55;20.48
77737;BME280;66903;59.926;30.404;2023-05-10T11:32:14;102246.88;;;33.34;20.57
77737;BME280;66903;59.926;30.404;2023-05-10T11:37:14;102252.56;;;33.17;20.07
77737;BME280;66903;59.926;30.404;2023-05-10T11:42:15;102252.13;;;33.01;20.77
77737;BME280;66903;59.926;30.404;2023-05-10T11:47:16;102249.31;;;32.88;20.04
77737;BME280;66903;59.926;30.404;2023-05-10T11:52:18;102247.84;;;32.77;20.54
77737;BME280;66903;59.926;30.404;2023-05-10T11:57:20;102238.44;;;32.71;20.72
77737;BME280;66903;59.926;30.404;2023-05-10T12:02:21;102234.19;;;32.69;20.59
77737;BME280;66903;59.926;30.404;2023-05-10T12:07:21;102228.50;;;32.64;20.96
77737;BME280;66903;59.926;30.404;2023-05-10T12:12:22;102225.94;;;32.62;20.55
77737;BME280;66903;59.926;30.404;2023-05-10T12:17:27;102225.41;;;32.60;20.96
77737;BME280;66903;59.926;30.404;2023-05-10T12:22:28;102225.66;;;32.50;20.88
77737;BME280;66903;59.926;30.404;2023-05-10T12:27:31;102227.53;;;32.46;20.84
77737;BME280;66903;59.926;30.404;2023-05-10T12:32:39;102216.34;;;32.39;20.76
77737;BME280;66903;59.926;30.404;2023-05-10T12:37:42;102222.28;;;32.34;20.97
77737;BME280;66903;59.926;30.404;2023-05-10T12:42:43;102218.09;;;32.27;20.62
77737;BME280;66903;59.926;30.404;2023-05-10T12:47:46;102215.13;;;32.18;20.42
77737;BME280;66903;59.926;30.404;2023-05-10T12:52:47;102221.59;;;32.15;20.49
77737;BME280;66903;59.926;30.404;2023-05-10T12:57:47;102217.09;;;32.09;20.71
77737;BME280;66903;59.926;30.404;2023-05-10T13:02:48;102218.63;;;32.07;20.30
77737;BME280;66903;59.926;30.404;2023-05-10T13:07:49;102208.00;;;32.02;20.33
77737;BME280;66903;59.926;30.404;2023-05-10T13:12:49;102208.78;;;31.94;20.05
77737;BME280;66903;59.926;30.404;2023-05-10T13:17:50;102211.56;;;31.86;20.20
77737;BME280;66903;59.926;30.404;2023-05-10T13:22:50;102210.47;;;31.82;20.03
77737;BME280;66903;59.926;30.404;2023-05-10T13:27:51;102210.28;;;31.78;19.89
77737;BME280;66903;59.926;30.404;2023-05-10T13:32:51;102208.91;;;31.76;20.08
77737;BME280;66903;59.926;30.404;2023-05-10T13:37:52;102213.06;;;31.70;20.63
77737;BME280;66903;59.926;30.404;2023-05-10T13:42:53;102191.66;;;31.57;20.59
77737;BME280;66903;59.926;30.404;2023-05-10T13:47:54;102186.66;;;31.49;20.52
77737;BME280;66903;59.926;30.404;2023-05-10T13:52:54;102188.78;;;31.43;20.73
77737;BME280;66903;59.926;30.404;2023-05-10T13:57:55;102183.66;;;31.40;20.61
77737;BME280;66903;59.926;30.404;2023-05-10T14:02:56;102186.56;;;31.40;20.77
77737;BME280;66903;59.926;30.404;2023-05-10T14:07:56;102178.84;;;31.36;20.92
77737;BME280;66903;59.926;30.404;2023-05-10T14:12:57;102184.38;;;31.32;20.74
77737;BME280;66903;59.926;30.404;2023-05-10T14:17:58;102177.84;;;31.27;20.76
77737;BME280;66903;59.926;30.404;2023-05-10T14:22:58;102183.28;;;31.28;20.78
77737;BME280;66903;59.926;30.404;2023-05-10T14:27:59;102178.06;;;31.30;20.62
77737;BME280;66903;59.926;30.404;2023-05-10T14:33:01;102183.50;;;31.32;21.10
77737;BME280;66903;59.926;30.404;2023-05-10T14:38:03;102182.66;;;31.31;20.86
77737;BME280;66903;59.926;30.404;2023-05-10T14:43:04;102180.88;;;31.35;20.85
77737;BME280;66903;59.926;30.404;2023-05-10T14:48:04;102171.38;;;31.35;20.91
77737;BME280;66903;59.926;30.404;2023-05-10T14:53:05;102170.25;;;31.31;20.82
77737;BME280;66903;59.926;30.404;2023-05-10T14:58:05;102177.13;;;31.35;20.90
77737;BME280;66903;59.926;30.404;2023-05-10T15:03:06;102183.47;;;31.37;20.63
77737;BME280;66903;59.926;30.404;2023-05-10T15:08:07;102179.69;;;31.36;20.54
77737;BME280;66903;59.926;30.404;2023-05-10T15:13:07;102181.41;;;31.37;20.62
77737;BME280;66903;59.926;30.404;2023-05-10T15:18:11;102179.06;;;31.39;20.80
77737;BME280;66903;59.926;30.404;2023-05-10T15:23:11;102179.38;;;31.38;20.68
77737;BME280;66903;59.926;30.404;2023-05-10T15:28:12;102168.69;;;31.38;20.82
77737;BME280;66903;59.926;30.404;2023-05-10T15:33:13;102164.94;;;31.38;20.82
77737;BME280;66903;59.926;30.404;2023-05-10T15:38:14;102174.78;;;31.37;21.36
77737;BME280;66903;59.926;30.404;2023-05-10T15:43:15;102163.53;;;31.35;21.38
77737;BME280;66903;59.926;30.404;2023-05-10T15:48:16;102156.78;;;31.26;21.11
77737;BME280;66903;59.926;30.404;2023-05-10T15:53:17;102165.03;;;31.33;21.09
77737;BME280;66903;59.926;30.404;2023-05-10T15:58:18;102168.00;;;31.28;21.09
77737;BME280;66903;59.926;30.404;2023-05-10T16:03:18;102167.25;;;31.22;20.72
77737;BME280;66903;59.926;30.404;2023-05-10T16:08:19;102162.75;;;31.16;21.14
77737;BME280;66903;59.926;30.404;2023-05-10T16:13:19;102163.06;;;31.15;21.33
77737;BME280;66903;59.926;30.404;2023-05-10T16:18:20;102161.47;;;31.09;21.38
77737;BME280;66903;59.926;30.404;2023-05-10T16:23:21;102158.38;;;31.05;21.58
77737;BME280;66903;59.926;30.404;2023-05-10T16:28:22;102158.69;;;31.04;21.37
77737;BME280;66903;59.926;30.404;2023-05-10T16:33:22;102155.78;;;31.04;21.22
77737;BME280;66903;59.926;30.404;2023-05-10T16:38:23;102151.53;;;31.01;21.24
77737;BME280;66903;59.926;30.404;2023-05-10T16:43:23;102156.22;;;30.97;20.87
77737;BME280;66903;59.926;30.404;2023-05-10T16:48:24;102153.97;;;30.94;21.14
77737;BME280;66903;59.926;30.404;2023-05-10T16:53:25;102153.34;;;30.97;21.34
77737;BME280;66903;59.926;30.404;2023-05-10T16:58:25;102155.06;;;30.98;21.27
77737;BME280;66903;59.926;30.404;2023-05-10T17:03:26;102162.44;;;31.04;21.01
77737;BME280;66903;59.926;30.404;2023-05-10T17:08:26;102159.44;;;30.96;21.06
77737;BME280;66903;59.926;30.404;2023-05-10T17:13:27;102161.66;;;30.85;21.01
77737;BME280;66903;59.926;30.404;2023-05-10T17:18:28;102165.88;;;30.74;21.12
77737;BME280;66903;59.926;30.404;2023-05-10T17:23:28;102171.63;;;30.74;21.05
77737;BME280;66903;59.926;30.404;2023-05-10T17:28:29;102166.66;;;30.80;21.03
77737;BME280;66903;59.926;30.404;2023-05-10T17:33:30;102164.66;;;30.80;20.78
77737;BME280;66903;59.926;30.404;2023-05-10T17:38:30;102169.75;;;30.83;21.39
77737;BME280;66903;59.926;30.404;2023-05-10T17:43:31;102177.94;;;30.76;21.50
77737;BME280;66903;59.926;30.404;2023-05-10T17:48:31;102179.31;;;30.65;21.92
77737;BME280;66903;59.926;30.404;2023-05-10T17:53:32;102182.38;;;30.55;21.95
77737;BME280;66903;59.926;30.404;2023-05-10T17:58:34;102184.25;;;30.46;22.19
77737;BME280;66903;59.926;30.404;2023-05-10T18:03:37;102174.00;;;30.40;22.31
77737;BME280;66903;59.926;30.404;2023-05-10T18:08:37;102183.88;;;30.34;22.12
77737;BME280;66903;59.926;30.404;2023-05-10T18:13:38;102188.66;;;30.25;22.32
77737;BME280;66903;59.926;30.404;2023-05-10T18:18:38;102184.13;;;30.19;22.40
77737;BME280;66903;59.926;30.404;2023-05-10T18:23:39;102191.97;;;30.13;22.47
77737;BME280;66903;59.926;30.404;2023-05-10T18:28:40;102190.88;;;30.09;22.26
77737;BME280;66903;59.926;30.404;2023-05-10T18:33:41;102191.84;;;30.05;22.74
77737;BME280;66903;59.926;30.404;2023-05-10T18:38:41;102189.88;;;30.00;22.73
77737;BME280;66903;59.926;30.404;2023-05-10T18:43:42;102184.41;;;29.99;22.82
77737;BME280;66903;59.926;30.404;2023-05-10T18:48:43;102194.78;;;30.00;22.93
77737;BME280;66903;59.926;30.404;2023-05-10T18:53:43;102191.38;;;29.98;23.13
77737;BME280;66903;59.926;30.404;2023-05-10T18:58:44;102196.34;;;30.11;23.36
77737;BME280;66903;59.926;30.404;2023-05-10T19:03:44;102196.75;;;30.23;23.28
77737;BME280;66903;59.926;30.404;2023-05-10T19:08:45;102191.53;;;30.25;23.14
77737;BME280;66903;59.926;30.404;2023-05-10T19:13:45;102202.88;;;30.16;23.21
77737;BME280;66903;59.926;30.404;2023-05-10T19:18:46;102200.47;;;30.05;23.41
77737;BME280;66903;59.926;30.404;2023-05-10T19:23:46;102202.03;;;29.97;23.76
77737;BME280;66903;59.926;30.404;2023-05-10T19:28:49;102204.66;;;29.94;23.89
77737;BME280;66903;59.926;30.404;2023-05-10T19:33:50;102198.44;;;29.87;26.51
77737;BME280;66903;59.926;30.404;2023-05-10T19:38:52;102189.41;;;29.75;26.75
77737;BME280;66903;59.926;30.404;2023-05-10T19:43:52;102191.28;;;29.61;26.96
77737;BME280;66903;59.926;30.404;2023-05-10T19:48:53;102199.44;;;29.54;27.08
77737;BME280;66903;59.926;30.404;2023-05-10T19:53:53;102189.44;;;29.46;26.88
77737;BME280;66903;59.926;30.404;2023-05-10T19:58:54;102204.78;;;29.42;27.42
77737;BME280;66903;59.926;30.404;2023-05-10T20:03:54;102197.91;;;29.37;28.02
77737;BME280;66903;59.926;30.404;2023-05-10T20:08:55;102196.81;;;29.33;28.86
77737;BME280;66903;59.926;30.404;2023-05-10T20:13:56;102199.94;;;29.37;28.69
77737;BME280;66903;59.926;30.404;2023-05-10T20:18:56;102193.59;;;29.40;28.74
77737;BME280;66903;59.926;30.404;2023-05-10T20:23:57;102203.06;;;29.40;28.43
77737;BME280;66903;59.926;30.404;2023-05-10T20:28:57;102204.78;;;29.42;28.68
77737;BME280;66903;59.926;30.404;2023-05-10T20:33:58;102199.34;;;29.40;28.50
77737;BME280;66903;59.926;30.404;2023-05-10T20:38:59;102205.09;;;29.40;28.40
77737;BME280;66903;59.926;30.404;2023-05-10T20:43:59;102207.34;;;29.43;28.21
77737;BME280;66903;59.926;30.404;2023-05-10T20:49:00;102207.66;;;29.42;28.48
77737;BME280;66903;59.926;30.404;2023-05-10T20:54:00;102213.50;;;29.36;28.50
77737;BME280;66903;59.926;30.404;2023-05-10T20:59:01;102217.03;;;29.28;29.00
77737;BME280;66903;59.926;30.404;2023-05-10T21:04:02;102224.56;;;29.24;28.81
77737;BME280;66903;59.926;30.404;2023-05-10T21:09:03;102224.31;;;29.21;28.59
77737;BME280;66903;59.926;30.404;2023-05-10T21:14:04;102225.16;;;29.21;29.24
77737;BME280;66903;59.926;30.404;2023-05-10T21:19:04;102225.66;;;29.28;28.96
77737;BME280;66903;59.926;30.404;2023-05-10T21:24:06;102230.22;;;29.34;28.42
77737;BME280;66903;59.926;30.404;2023-05-10T21:29:07;102232.28;;;29.29;28.08
77737;BME280;66903;59.926;30.404;2023-05-10T21:34:07;102239.00;;;29.19;28.37
77737;BME280;66903;59.926;30.404;2023-05-10T21:39:08;102245.75;;;29.10;28.41
77737;BME280;66903;59.926;30.404;2023-05-10T21:44:08;102256.72;;;29.03;28.42
77737;BME280;66903;59.926;30.404;2023-05-10T21:49:09;102261.09;;;28.95;28.18
77737;BME280;66903;59.926;30.404;2023-05-10T21:54:09;102257.41;;;28.90;27.64
77737;BME280;66903;59.926;30.404;2023-05-10T21:59:09;102263.50;;;28.83;27.89
77737;BME280;66903;59.926;30.404;2023-05-10T22:04:10;102266.44;;;28.78;27.86
77737;BME280;66903;59.926;30.404;2023-05-10T22:09:10;102273.94;;;28.74;28.31
77737;BME280;66903;59.926;30.404;2023-05-10T22:14:11;102262.19;;;28.71;27.71
77737;BME280;66903;59.926;30.404;2023-05-10T22:19:11;102266.84;;;28.67;27.68
77737;BME280;66903;59.926;30.404;2023-05-10T22:24:12;102268.28;;;28.64;28.62
77737;BME280;66903;59.926;30.404;2023-05-10T22:29:13;102266.03;;;28.61;28.58
77737;BME280;66903;59.926;30.404;2023-05-10T22:34:13;102262.00;;;28.57;28.39
77737;BME280;66903;59.926;30.404;2023-05-10T22:39:14;102266.91;;;28.57;28.50
77737;BME280;66903;59.926;30.404;2023-05-10T22:44:15;102269.50;;;28.53;28.34
77737;BME280;66903;59.926;30.404;2023-05-10T22:49:15;102262.34;;;28.51;27.83
77737;BME280;66903;59.926;30.404;2023-05-10T22:54:16;102266.66;;;28.48;28.25
77737;BME280;66903;59.926;30.404;2023-05-10T22:59:16;102263.50;;;28.45;27.73
77737;BME280;66903;59.926;30.404;2023-05-10T23:04:17;102271.88;;;28.41;27.90
77737;BME280;66903;59.926;30.404;2023-05-10T23:09:17;102269.00;;;28.41;27.76
77737;BME280;66903;59.926;30.404;2023-05-10T23:14:18;102275.91;;;28.40;27.98
77737;BME280;66903;59.926;30.404;2023-05-10T23:19:18;102273.63;;;28.37;28.46
77737;BME280;66903;59.926;30.404;2023-05-10T23:24:19;102269.03;;;28.36;28.43
77737;BME280;66903;59.926;30.404;2023-05-10T23:29:19;102273.34;;;28.33;28.22
77737;BME280;66903;59.926;30.404;2023-05-10T23:34:20;102276.84;;;28.30;28.55
77737;BME280;66903;59.926;30.404;2023-05-10T23:39:20;102281.44;;;28.31;28.44
77737;BME280;66903;59.926;30.404;2023-05-10T23:44:21;102278.84;;;28.30;28.33
77737;BME280;66903;59.926;30.404;2023-05-10T23:49:21;102284.06;;;28.28;28.64
77737;BME280;66903;59.926;30.404;2023-05-10T23:54:22;102283.78;;;28.24;28.49
77737;BME280;66903;59.926;30.404;2023-05-10T23:59:23;102281.19;;;28.23;28.72
